Time;durP1;ratioP1;P1;durP2;ratioP2;P2;SDS_P1;SDS_P2;PMS_P1;PMS_P2;Temp;Humidity;BMP_temperature;BMP_pressure;BME280_temperature;BME280_humidity;BME280_pressure;Samples;Min_cycle;Max_cycle;Signal;HPM_P1;HPM_P2
2021/01/06 00:02:13;;;;;;;;;;;22.00;99.90;;;;;;5053081;28;25144;-38
2021/01/06 00:04:40;;;;;;;;;;;22.00;98.40;;;;;;5053334;28;25077;-38
2021/01/06 00:07:08;;;;;;;;;;;22.00;99.90;;;;;;5053559;28;29094;-37
2021/01/06 00:09:35;;;;;;;;;;;22.00;99.90;;;;;;5054248;28;25073;-38
2021/01/06 00:12:06;;;;;;;;;;;22.00;99.90;;;;;;5055373;28;25079;-38
2021/01/06 00:17:25;;;;;;;;;;;22.00;99.90;;;;;;5053547;28;25093;-38
2021/01/06 00:19:52;;;;;;;;;;;22.00;99.90;;;;;;5053606;28;25085;-38
2021/01/06 00:22:19;;;;;;;;;;;22.00;99.90;;;;;;5053073;28;25084;-38
2021/01/06 00:24:47;;;;;;;;;;;22.00;99.90;;;;;;5052515;28;25130;-38
2021/01/06 00:27:15;;;;;;;;;;;22.00;99.90;;;;;;5048852;28;25118;-38
2021/01/06 00:29:43;;;;;;;;;;;22.00;99.90;;;;;;5047044;28;20400;-39
2021/01/06 00:32:11;;;;;;;;;;;22.00;99.90;;;;;;5048028;28;25085;-38
2021/01/06 00:34:39;;;;;;;;;;;22.00;99.90;;;;;;5047670;28;25103;-38
2021/01/06 00:37:05;;;;;;;;;;;22.00;99.90;;;;;;5047989;28;25138;-39
2021/01/06 00:39:32;;;;;;;;;;;22.00;99.90;;;;;;5051642;28;25124;-38
2021/01/06 00:41:59;;;;;;;;;;;22.00;99.90;;;;;;5050589;28;25129;-39
2021/01/06 00:44:27;;;;;;;;;;;22.00;99.90;;;;;;5049024;28;20405;-38
2021/01/06 00:46:54;;;;;;;;;;;22.00;99.90;;;;;;5046734;28;20507;-38
2021/01/06 00:49:22;;;;;;;;;;;22.00;99.90;;;;;;5046679;28;20424;-38
2021/01/06 00:51:49;;;;;;;;;;;22.00;99.90;;;;;;5049293;28;20410;-38
2021/01/06 00:54:17;;;;;;;;;;;22.00;99.90;;;;;;5050661;28;25122;-37
2021/01/06 00:56:45;;;;;;;;;;;22.00;99.90;;;;;;5047538;28;20441;-38
2021/01/06 00:59:16;;;;;;;;;;;22.00;99.90;;;;;;5047820;28;25127;-37
2021/01/06 01:01:45;;;;;;;;;;;22.00;99.90;;;;;;5048018;28;20768;-37
2021/01/06 01:04:14;;;;;;;;;;;22.00;99.90;;;;;;5047819;28;20244;-37
2021/01/06 01:06:41;;;;;;;;;;;22.00;99.90;;;;;;5050311;28;20791;-37
2021/01/06 01:09:08;;;;;;;;;;;22.00;99.90;;;;;;5064472;28;20421;-37
2021/01/06 01:11:37;;;;;;;;;;;22.00;99.90;;;;;;5049960;28;20719;-38
2021/01/06 01:14:04;;;;;;;;;;;22.00;99.90;;;;;;5050348;28;20897;-40
2021/01/06 01:16:40;;;;;;;;;;;21.90;99.90;;;;;;5048365;28;25105;-37
2021/01/06 01:19:08;;;;;;;;;;;21.90;99.90;;;;;;5050083;28;20418;-38
2021/01/06 01:21:35;;;;;;;;;;;22.00;99.90;;;;;;5048643;28;20491;-38
2021/01/06 01:24:03;;;;;;;;;;;22.00;99.90;;;;;;5049830;28;20498;-38
2021/01/06 01:26:30;;;;;;;;;;;21.90;99.90;;;;;;5048101;28;20404;-38
2021/01/06 01:28:57;;;;;;;;;;;22.00;99.90;;;;;;5048949;28;20418;-38
2021/01/06 01:31:30;;;;;;;;;;;22.00;99.80;;;;;;5047666;28;25090;-38
2021/01/06 01:33:59;;;;;;;;;;;21.90;99.80;;;;;;5049669;28;20424;-37
2021/01/06 01:36:27;;;;;;;;;;;21.90;99.90;;;;;;5050397;28;20426;-38
2021/01/06 01:38:54;;;;;;;;;;;21.90;99.60;;;;;;5048563;28;20415;-38
2021/01/06 01:41:22;;;;;;;;;;;21.90;99.50;;;;;;5047236;28;20489;-37
2021/01/06 01:43:49;;;;;;;;;;;21.90;99.60;;;;;;5042416;28;20904;-38
2021/01/06 01:46:34;;;;;;;;;;;21.90;99.10;;;;;;5042465;28;20889;-38
2021/01/06 01:49:04;;;;;;;;;;;21.90;99.20;;;;;;5047038;28;20469;-38
2021/01/06 01:51:39;;;;;;;;;;;21.90;99.00;;;;;;5049709;28;25155;-38
2021/01/06 01:54:07;;;;;;;;;;;21.90;99.00;;;;;;5050898;28;20506;-38
2021/01/06 01:56:46;;;;;;;809.30;749.00;;;21.90;98.90;;;;;;5043540;28;20437;-38
2021/01/06 01:59:19;;;;;;;796.20;736.55;;;21.90;98.60;;;;;;5050195;28;20904;-38
2021/01/06 02:01:50;;;;;;;801.03;740.93;;;21.90;98.70;;;;;;5049332;28;21585;-38
2021/01/06 02:04:25;;;;;;;792.15;732.50;;;22.00;98.60;;;;;;5050830;28;20433;-38
2021/01/06 02:07:03;;;;;;;798.20;738.10;;;22.00;98.60;;;;;;5051911;28;20412;-38
2021/01/06 02:09:34;;;;;;;;;;;22.00;98.60;;;;;;5049052;28;20417;-38
2021/01/06 02:12:07;;;;;;;;;;;22.00;98.50;;;;;;5048826;28;25119;-38
2021/01/06 02:14:39;;;;;;;;;;;22.00;98.20;;;;;;5049572;28;20406;-38
2021/01/06 02:17:12;;;;;;;781.20;722.00;;;22.00;98.20;;;;;;5049030;28;20445;-38
2021/01/06 02:19:42;;;;;;;774.00;714.80;;;22.00;98.10;;;;;;5050920;28;20501;-37
2021/01/06 02:22:18;;;;;;;798.50;738.60;;;22.00;97.90;;;;;;5050951;28;20508;-37
2021/01/06 02:24:48;;;;;;;805.20;745.00;;;22.00;97.90;;;;;;5051213;28;25096;-37
2021/01/06 02:27:17;;;;;;;787.55;727.85;;;22.00;97.80;;;;;;5051714;28;20471;-37
2021/01/06 02:29:45;;;;;;;810.00;749.38;;;21.90;97.60;;;;;;5051948;28;20418;-38
2021/01/06 02:32:13;;;;;;;821.65;760.65;;;22.00;97.20;;;;;;5050723;28;20480;-38
2021/01/06 02:34:42;;;;;;;833.67;772.58;;;22.00;97.20;;;;;;5051838;28;20527;-37
2021/01/06 02:37:11;;;;;;;821.03;760.33;;;22.00;97.30;;;;;;5051288;28;20432;-37
2021/01/06 02:39:40;;;;;;;811.15;750.85;;;22.00;97.30;;;;;;5051288;28;20488;-36
2021/01/06 02:42:08;;;;;;;803.10;742.90;;;22.00;97.00;;;;;;5051153;28;20421;-38
2021/01/06 02:44:35;;;;;;;802.67;742.67;;;22.00;96.80;;;;;;5051299;28;20412;-37
2021/01/06 02:47:03;;;;;;;793.53;733.92;;;22.00;96.80;;;;;;5050376;28;20434;-37
2021/01/06 02:49:30;;;;;;;791.65;732.17;;;22.00;96.70;;;;;;5051256;28;20526;-37
2021/01/06 02:52:03;;;;;;;775.90;717.10;;;22.00;96.40;;;;;;5050476;28;20971;-38
2021/01/06 02:54:35;;;;;;;744.60;686.60;;;22.00;96.50;;;;;;5047510;28;20441;-38
2021/01/06 02:57:10;;;;;;;773.10;714.38;;;22.00;96.40;;;;;;5047095;28;20605;-38
2021/01/06 02:59:41;;;;;;;766.40;707.70;;;22.00;96.30;;;;;;5050649;28;20405;-38
2021/01/06 03:02:10;;;;;;;751.30;693.10;;;22.00;96.00;;;;;;5049357;28;20396;-38
2021/01/06 03:04:46;;;;;;;746.40;688.50;;;22.00;95.90;;;;;;5044779;28;21769;-38
2021/01/06 03:07:16;;;;;;;758.00;699.30;;;22.00;95.80;;;;;;5050194;28;20413;-38
2021/01/06 03:09:44;;;;;;;741.30;683.40;;;22.00;95.90;;;;;;5050962;28;20529;-37
2021/01/06 03:12:15;;;;;;;;;;;22.00;95.90;;;;;;5050433;28;20420;-38
2021/01/06 03:14:43;;;;;;;739.05;681.25;;;22.00;95.70;;;;;;5065559;28;20493;-38
2021/01/06 03:17:16;;;;;;;752.20;694.20;;;22.00;95.60;;;;;;5049430;28;20887;-38
2021/01/06 03:19:48;;;;;;;729.10;671.70;;;22.00;95.50;;;;;;5050664;28;20419;-39
2021/01/06 03:22:19;;;;;;;792.15;732.25;;;22.00;95.40;;;;;;5050099;28;20429;-39
2021/01/06 03:24:50;;;;;;;756.25;697.75;;;22.00;95.20;;;;;;5050443;28;20413;-39
2021/01/06 03:27:20;;;;;;;770.75;711.95;;;22.00;95.30;;;;;;5050552;28;20409;-38
2021/01/06 03:29:49;;;;;;;767.92;709.10;;;22.00;95.20;;;;;;5049834;28;20425;-38
2021/01/06 03:32:27;;;;;;;812.67;752.28;;;22.00;95.10;;;;;;5048352;28;20432;-38
2021/01/06 03:35:02;;;;;;;833.97;772.65;;;22.00;94.90;;;;;;5050562;28;20479;-37
2021/01/06 03:37:35;;;;;;;820.90;759.70;;;22.00;94.90;;;;;;5051136;28;20440;-38
2021/01/06 03:40:10;;;;;;;800.03;739.33;;;22.10;94.80;;;;;;5052005;28;20405;-38
2021/01/06 03:42:40;;;;;;;765.77;706.00;;;22.10;94.80;;;;;;5051095;28;20452;-38
2021/01/06 03:45:11;;;;;;;764.42;705.15;;;22.00;94.50;;;;;;5051063;28;20768;-38
2021/01/06 03:47:43;;;;;;;805.17;744.97;;;22.00;94.30;;;;;;5050895;28;20418;-38
2021/01/06 03:53:21;;;;;;;776.60;716.40;;;22.00;94.40;;;;;;5045550;28;20405;-38
2021/01/06 03:56:16;;;;;;;764.75;704.47;;;22.00;94.20;;;;;;5043013;28;20429;-38
2021/01/06 03:58:59;;;;;;;784.20;723.70;;;22.00;94.10;;;;;;5047545;28;20397;-38
2021/01/06 04:01:42;;;;;;;768.22;708.03;;;22.00;93.80;;;;;;5047029;28;20493;-38
2021/01/06 04:04:17;;;;;;;788.03;727.63;;;22.00;93.80;;;;;;5051520;28;20413;-38
2021/01/06 04:06:48;;;;;;;750.33;690.53;;;22.00;93.80;;;;;;5053346;28;20409;-37
2021/01/06 04:09:26;;;;;;;739.40;679.30;;;22.00;93.80;;;;;;5054315;28;20409;-37
2021/01/06 04:12:02;;;;;;;758.10;697.80;;;22.00;93.60;;;;;;5049940;28;20405;-36
2021/01/06 04:14:30;;;;;;;726.63;667.60;;;22.00;93.60;;;;;;5049116;28;20409;-37
2021/01/06 04:17:03;;;;;;;731.28;671.92;;;22.00;93.40;;;;;;5052423;28;20921;-37
2021/01/06 04:19:30;;;;;;;733.33;673.93;;;22.00;93.50;;;;;;5054485;28;20413;-37
2021/01/06 04:21:58;;;;;;;708.75;649.47;;;22.00;93.50;;;;;;5053474;28;20459;-37
2021/01/06 04:24:25;;;;;;;738.97;679.58;;;22.00;93.20;;;;;;5048962;28;20420;-37
2021/01/06 04:26:52;;;;;;;720.75;661.25;;;22.00;93.20;;;;;;5048339;28;20480;-37
2021/01/06 04:29:20;;;;;;;751.22;691.05;;;22.00;93.00;;;;;;5046185;28;20421;-37
2021/01/06 04:31:48;;;;;;;723.00;664.08;;;22.00;93.10;;;;;;5046196;28;20493;-38
2021/01/06 04:34:16;;;;;;;706.05;646.85;;;22.00;92.90;;;;;;5066407;28;20485;-37
2021/01/06 04:36:43;;;;;;;767.90;706.08;;;22.00;92.90;;;;;;5049896;28;20433;-37
2021/01/06 04:39:10;;;;;;;696.20;637.05;;;22.00;92.80;;;;;;5054391;28;20422;-37
2021/01/06 04:41:47;;;;;;;753.15;691.60;;;22.00;92.70;;;;;;5053762;28;20483;-38
2021/01/06 04:44:41;;;;;;;768.38;706.47;;;22.00;92.60;;;;;;5053922;28;20402;-37
2021/01/06 04:48:01;;;;;;;761.60;700.25;;;22.00;92.10;;;;;;5052570;28;20421;-38
2021/01/06 04:51:10;;;;;;;824.03;772.80;;;22.00;92.00;;;;;;5052967;28;20756;-37
2021/01/06 04:53:46;;;;;;;770.75;723.35;;;22.00;92.60;;;;;;5053582;28;20398;-37
2021/01/06 04:56:39;;;;;;;739.05;685.03;;;22.00;92.30;;;;;;5052807;28;20444;-37
2021/01/06 04:59:25;;;;;;;730.55;670.45;;;22.00;92.00;;;;;;5053053;28;20405;-38
2021/01/06 05:02:15;;;;;;;733.58;673.13;;;22.00;92.10;;;;;;5052173;28;20443;-38
2021/01/06 05:05:26;;;;;;;746.35;685.30;;;22.00;91.90;;;;;;5053672;28;20423;-38
2021/01/06 05:08:05;;;;;;;672.90;614.63;;;22.00;91.80;;;;;;5052657;28;20413;-39
2021/01/06 05:10:38;;;;;;;718.37;658.97;;;22.00;91.60;;;;;;5052057;28;20445;-38
2021/01/06 05:13:18;;;;;;;697.78;638.78;;;22.00;91.00;;;;;;5047755;28;20460;-38
2021/01/06 05:15:51;;;;;;;745.53;688.22;;;22.10;89.60;;;;;;5050459;28;20409;-38
2021/01/06 05:18:19;;;;;;;680.77;623.07;;;22.20;89.20;;;;;;5053008;28;20432;-38
2021/01/06 05:20:48;;;;;;;686.65;628.45;;;22.30;88.70;;;;;;5049167;28;20418;-38
2021/01/06 05:23:20;;;;;;;693.17;634.70;;;22.50;88.80;;;;;;5048025;28;20440;-38
2021/01/06 05:25:48;;;;;;;750.75;690.65;;;22.50;88.20;;;;;;5052206;28;20421;-38
2021/01/06 05:28:19;;;;;;;688.28;630.28;;;22.60;88.10;;;;;;5052575;28;20432;-38
2021/01/06 05:30:51;;;;;;;752.45;692.75;;;22.70;88.30;;;;;;5051192;28;20747;-38
2021/01/06 05:33:24;;;;;;;714.63;655.22;;;22.80;87.60;;;;;;5052340;28;20433;-37
2021/01/06 05:35:53;;;;;;;770.42;715.63;;;22.80;87.40;;;;;;5052420;28;20445;-38
2021/01/06 05:38:21;;;;;;;741.58;683.08;;;22.80;87.10;;;;;;5052422;28;20432;-38
2021/01/06 05:40:48;;;;;;;773.00;718.20;;;22.90;87.20;;;;;;5052215;28;20853;-38
2021/01/06 05:43:41;;;;;;;762.75;701.63;;;22.90;86.70;;;;;;5052328;28;20525;-38
2021/01/06 05:46:15;;;;;;;766.15;714.05;;;22.90;86.50;;;;;;5047911;28;20865;-38
2021/01/06 05:48:49;;;;;;;777.47;724.30;;;23.00;86.30;;;;;;5051812;28;20411;-38
2021/01/06 05:51:24;;;;;;;740.47;686.92;;;23.00;86.10;;;;;;5051219;28;20425;-38
2021/01/06 05:53:58;;;;;;;796.33;749.43;;;23.00;85.70;;;;;;5050789;28;20412;-39
2021/01/06 05:56:56;;;;;;;800.38;746.60;;;23.10;85.50;;;;;;5051060;28;20898;-40
2021/01/06 05:59:54;;;;;;;791.57;740.63;;;23.10;85.30;;;;;;5051871;28;20421;-36
2021/01/06 06:02:32;;;;;;;740.80;683.63;;;23.10;84.90;;;;;;5050613;28;20773;-37
2021/01/06 06:05:16;;;;;;;739.17;679.95;;;23.10;84.70;;;;;;5050861;28;20488;-37
2021/01/06 06:08:02;;;;;;;750.97;690.72;;;23.10;84.40;;;;;;5051893;28;20408;-37
2021/01/06 06:10:53;;;;;;;761.67;702.40;;;23.10;84.40;;;;;;5050760;28;20421;-37
2021/01/06 06:13:43;;;;;;;793.78;731.55;;;23.10;84.20;;;;;;5051230;28;20409;-37
2021/01/06 06:16:36;;;;;;;808.40;745.58;;;23.00;83.90;;;;;;5050504;28;21492;-37
2021/01/06 06:19:19;;;;;;;803.50;740.90;;;23.00;83.70;;;;;;5051811;28;20537;-37
2021/01/06 06:21:55;;;;;;;798.67;735.97;;;23.00;83.70;;;;;;5051914;28;20448;-37
2021/01/06 06:24:38;;;;;;;804.55;741.75;;;23.00;83.40;;;;;;5051292;28;20551;-37
2021/01/06 06:27:29;;;;;;;771.45;709.63;;;22.90;83.30;;;;;;5051957;28;20512;-37
2021/01/06 06:30:22;;;;;;;782.13;720.40;;;22.90;83.10;;;;;;5046454;28;20486;-38
2021/01/06 06:32:51;;;;;;;767.45;705.88;;;22.90;83.00;;;;;;5048904;28;20474;-37
2021/01/06 06:35:23;;;;;;;773.47;711.97;;;22.80;82.80;;;;;;5045457;28;20478;-37
2021/01/06 06:37:54;;;;;;;776.67;714.90;;;22.80;82.90;;;;;;5047250;28;20460;-38
2021/01/06 06:43:28;;;;;;;747.92;687.30;;;22.70;82.10;;;;;;5047702;28;20413;-38
2021/01/06 06:46:11;;;;;;;753.70;692.90;;;22.70;81.90;;;;;;5049323;28;20413;-37
2021/01/06 06:48:49;;;;;;;759.83;698.72;;;22.70;81.60;;;;;;5050540;28;20432;-37
2021/01/06 06:51:23;;;;;;;772.95;711.03;;;22.70;80.90;;;;;;5049783;28;20417;-37
2021/01/06 06:53:57;;;;;;;780.78;718.88;;;22.60;80.40;;;;;;5050282;28;20420;-37
2021/01/06 06:56:36;;;;;;;774.90;713.10;;;22.50;80.40;;;;;;5050353;28;20461;-37
2021/01/06 06:59:10;;;;;;;760.25;699.25;;;22.50;80.20;;;;;;5051744;28;20413;-37
2021/01/06 07:01:41;;;;;;;769.27;707.77;;;22.50;80.00;;;;;;5050110;28;20418;-38
2021/01/06 07:04:34;;;;;;;763.78;702.58;;;22.50;79.90;;;;;;5046192;28;20419;-37
2021/01/06 07:07:38;;;;;;;716.75;657.28;;;22.40;79.70;;;;;;5045929;28;20435;-37
2021/01/06 07:10:16;;;;;;;756.53;695.33;;;22.50;79.70;;;;;;5046619;28;20420;-37
2021/01/06 07:12:44;;;;;;;784.00;729.25;;;22.50;79.70;;;;;;5043547;28;20485;-37
2021/01/06 07:15:42;;;;;;;757.03;717.83;;;22.50;79.30;;;;;;5043143;28;20413;-38
2021/01/06 07:18:34;;;;;;;747.60;712.63;;;22.60;79.90;;;;;;5045589;28;20875;-38
2021/01/06 07:21:15;;;;;;;766.80;733.90;;;22.50;79.50;;;;;;5045432;28;20548;-37
2021/01/06 07:23:47;;;;;;;757.88;725.53;;;22.60;78.30;;;;;;5046149;28;21051;-37
2021/01/06 07:26:24;;;;;;;741.03;705.85;;;22.70;78.10;;;;;;5045826;28;20407;-39
2021/01/06 07:29:00;;;;;;;779.70;738.97;;;22.70;78.70;;;;;;5049308;28;20440;-38
2021/01/06 07:31:30;;;;;;;763.63;726.13;;;22.80;78.80;;;;;;5047863;28;20572;-36
2021/01/06 07:34:02;;;;;;;801.95;761.95;;;22.80;78.80;;;;;;5049784;28;20417;-37
2021/01/06 07:36:32;;;;;;;694.92;666.28;;;22.90;78.70;;;;;;5050230;28;20493;-38
2021/01/06 07:39:00;;;;;;;792.83;757.10;;;22.90;78.40;;;;;;5048533;28;20810;-38
2021/01/06 07:41:29;;;;;;;813.88;755.78;;;22.90;78.20;;;;;;5050633;28;20508;-38
2021/01/06 07:44:06;;;;;;;801.35;738.15;;;22.90;77.90;;;;;;5053329;28;20948;-38
2021/01/06 07:46:46;;;;;;;810.97;747.78;;;23.10;77.80;;;;;;5051956;28;20410;-38
2021/01/06 07:49:31;;;;;;;788.83;726.63;;;23.10;77.70;;;;;;5053874;28;20470;-38
2021/01/06 07:52:02;;;;;;;785.47;723.47;;;23.10;77.70;;;;;;5053069;28;20413;-38
2021/01/06 07:54:37;;;;;;;850.67;786.17;;;23.10;77.70;;;;;;5053946;28;20482;-38
2021/01/06 07:57:36;;;;;;;834.60;773.95;;;23.20;77.80;;;;;;5053174;28;20433;-38
2021/01/06 08:00:10;;;;;;;830.80;770.10;;;23.20;77.80;;;;;;5053767;28;20467;-38
2021/01/06 08:02:46;;;;;;;589.85;568.40;;;23.30;77.90;;;;;;5053152;28;20428;-38
2021/01/06 08:05:27;;;;;;;461.13;445.80;;;23.30;77.80;;;;;;5053463;28;20482;-38
2021/01/06 08:08:09;;;;;;;753.38;717.25;;;23.30;77.80;;;;;;5053395;28;20475;-37
2021/01/06 08:10:39;;;;;;;710.47;682.03;;;23.30;77.90;;;;;;5052908;28;20497;-38
2021/01/06 08:13:26;;;;;;;765.77;730.53;;;23.30;78.10;;;;;;5052655;28;20467;-38
2021/01/06 08:16:10;;;;;;;653.22;628.28;;;23.20;77.80;;;;;;5051682;28;21081;-38
2021/01/06 08:18:50;;;;;;;566.70;546.03;;;23.20;78.00;;;;;;5053591;28;20440;-37
2021/01/06 08:21:25;;;;;;;709.30;677.70;;;23.20;78.00;;;;;;5053203;28;20409;-36
2021/01/06 08:24:12;;;;;;;790.72;729.13;;;23.10;78.10;;;;;;5052615;28;20482;-38
2021/01/06 08:26:47;;;;;;;756.85;696.25;;;23.10;78.10;;;;;;5052733;28;20418;-37
2021/01/06 08:29:19;;;;;;;741.15;680.85;;;23.10;78.30;;;;;;5053287;28;20424;-37
2021/01/06 08:31:50;;;;;;;746.42;685.92;;;23.10;78.40;;;;;;5051785;28;20836;-37
2021/01/06 08:34:30;;;;;;;749.07;688.53;;;23.00;78.40;;;;;;5052794;28;20439;-37
2021/01/06 08:37:01;;;;;;;762.10;701.10;;;23.00;78.70;;;;;;5052430;28;20525;-37
2021/01/06 08:39:30;;;;;;;762.90;701.70;;;23.00;78.90;;;;;;5053489;28;20456;-38
2021/01/06 08:42:08;;;;;;;750.17;689.28;;;22.90;79.00;;;;;;5068606;28;20542;-37
2021/01/06 08:44:45;;;;;;;800.17;738.47;;;22.90;79.30;;;;;;5052963;28;20409;-37
2021/01/06 08:47:28;;;;;;;752.17;691.38;;;22.80;79.50;;;;;;5045483;28;20417;-37
2021/01/06 08:50:11;;;;;;;775.63;713.90;;;22.80;79.40;;;;;;5053390;28;20424;-37
2021/01/06 08:52:40;;;;;;;773.40;711.60;;;22.80;79.10;;;;;;5049755;28;20624;-37
2021/01/06 08:55:22;;;;;;;776.85;715.03;;;22.70;79.00;;;;;;5045825;28;20409;-37
2021/01/06 08:57:58;;;;;;;759.00;697.80;;;22.70;79.10;;;;;;5046186;28;20421;-37
2021/01/06 09:00:30;;;;;;;764.73;703.23;;;22.60;79.10;;;;;;5045117;28;20455;-37
2021/01/06 09:03:08;;;;;;;784.85;722.65;;;22.80;79.20;;;;;;5047212;28;20505;-37
2021/01/06 09:05:52;;;;;;;772.57;710.87;;;22.80;78.80;;;;;;5051213;28;20437;-37
2021/01/06 09:08:22;;;;;;;768.83;707.33;;;22.90;78.60;;;;;;5052091;28;20504;-37
2021/01/06 09:11:13;;;;;;;764.38;703.08;;;22.90;78.50;;;;;;5051341;28;20859;-37
2021/01/06 09:14:11;;;;;;;751.33;690.67;;;23.00;78.10;;;;;;5045303;28;20424;-38
2021/01/06 09:16:46;;;;;;;756.63;695.72;;;23.10;77.90;;;;;;5050393;28;20517;-38
2021/01/06 09:19:22;;;;;;;767.50;706.30;;;23.10;77.80;;;;;;5052480;28;20417;-38
2021/01/06 09:21:51;;;;;;;758.28;696.72;;;23.10;77.60;;;;;;5051801;28;20428;-37
2021/01/06 09:24:21;;;;;;;719.90;659.50;;;23.00;77.50;;;;;;5053131;28;20441;-38
2021/01/06 09:26:54;;;;;;;748.23;687.53;;;23.10;77.50;;;;;;5052723;28;20409;-39
2021/01/06 09:29:24;;;;;;;758.17;697.38;;;23.10;77.30;;;;;;5052246;28;20881;-38
2021/01/06 09:31:54;;;;;;;763.22;702.15;;;23.10;77.30;;;;;;5051416;28;20420;-38
2021/01/06 09:34:27;;;;;;;801.87;739.17;;;23.10;77.20;;;;;;5052322;28;20420;-38
2021/01/06 09:36:56;;;;;;;815.35;752.05;;;23.20;77.20;;;;;;5051892;28;21070;-38
2021/01/06 09:39:26;;;;;;;824.55;760.95;;;23.20;77.10;;;;;;5049300;28;20405;-38
2021/01/06 09:41:56;;;;;;;825.20;761.38;;;23.20;77.00;;;;;;5048580;28;20428;-38
2021/01/06 09:44:24;;;;;;;796.97;734.08;;;23.20;76.90;;;;;;5048535;28;20873;-38
2021/01/06 09:46:56;;;;;;;833.27;769.47;;;23.20;76.70;;;;;;5048316;28;20414;-38
2021/01/06 09:49:30;;;;;;;834.03;770.23;;;23.30;76.90;;;;;;5050383;28;20467;-38
2021/01/06 09:52:00;;;;;;;829.47;765.67;;;23.20;76.60;;;;;;5051752;28;20954;-39
2021/01/06 09:54:28;;;;;;;815.22;751.92;;;23.20;76.80;;;;;;5046922;28;21451;-39
2021/01/06 09:56:57;;;;;;;829.53;766.03;;;23.20;76.90;;;;;;5047727;28;20745;-38
2021/01/06 09:59:28;;;;;;;850.30;788.50;;;23.20;76.90;;;;;;5047500;28;20523;-39
2021/01/06 10:02:00;;;;;;;836.63;774.13;;;23.20;76.80;;;;;;5046750;28;20880;-38
2021/01/06 10:04:34;;;;;;;857.63;801.90;;;23.20;76.70;;;;;;5049234;28;20539;-38
2021/01/06 10:07:45;;;;;;;832.00;787.22;;;23.20;76.90;;;;;;5050933;28;20958;-38
2021/01/06 10:10:20;;;;;;;856.88;806.38;;;23.10;76.70;;;;;;5051273;28;20416;-38
2021/01/06 10:13:01;;;;;;;895.80;845.33;;;23.20;76.90;;;;;;5051154;28;20520;-38
2021/01/06 10:15:54;;;;;;;868.30;807.53;;;23.20;76.80;;;;;;5050275;28;20434;-38
2021/01/06 10:18:32;;;;;;;861.45;800.85;;;23.10;77.00;;;;;;5050057;28;20473;-39
2021/01/06 10:21:11;;;;;;;857.92;796.97;;;23.10;77.10;;;;;;5050599;28;20483;-39
2021/01/06 10:23:51;;;;;;;859.57;799.30;;;23.10;77.10;;;;;;5051444;28;20543;-38
2021/01/06 10:26:45;;;;;;;841.60;779.27;;;23.20;77.10;;;;;;5052193;28;20414;-38
2021/01/06 10:29:16;;;;;;;857.15;795.45;;;23.10;77.00;;;;;;5051095;28;20559;-38
2021/01/06 10:32:07;;;;;;;854.80;793.17;;;23.10;76.90;;;;;;5047581;28;21061;-38
2021/01/06 10:34:38;;;;;;;849.37;787.07;;;23.00;76.90;;;;;;5045376;28;20769;-36
2021/01/06 10:37:19;;;;;;;846.30;783.63;;;23.00;77.00;;;;;;5043334;28;20506;-39
2021/01/06 10:39:48;;;;;;;859.35;797.85;;;23.00;77.00;;;;;;5044134;28;20401;-37
2021/01/06 10:42:36;;;;;;;861.92;801.15;;;23.00;77.00;;;;;;5046604;28;20405;-37
2021/01/06 10:48:03;;;;;;;849.30;787.90;;;22.90;76.40;;;;;;5024364;28;20408;-40
2021/01/06 10:50:45;;;;;;;839.13;777.33;;;22.90;76.60;;;;;;5024971;28;20526;-38
2021/01/06 10:53:25;;;;;;;825.97;762.88;;;23.00;76.80;;;;;;5028161;28;20445;-38
2021/01/06 10:56:06;;;;;;;829.78;766.58;;;22.90;76.60;;;;;;5028998;28;20434;-38
2021/01/06 10:58:41;;;;;;;839.70;779.70;;;23.20;76.50;;;;;;5029168;28;20441;-38
2021/01/06 11:02:02;;;;;;;829.78;769.83;;;23.20;76.00;;;;;;5036991;28;20448;-38
2021/01/06 11:05:01;;;;;;;845.97;789.97;;;23.20;76.60;;;;;;5047056;28;20480;-38
2021/01/06 11:07:47;;;;;;;836.60;777.10;;;23.30;76.00;;;;;;5049638;28;20413;-38
2021/01/06 11:10:24;;;;;;;874.15;819.47;;;23.30;75.60;;;;;;5065532;28;20424;-38
2021/01/06 11:13:21;;;;;;;853.35;793.55;;;23.40;75.70;;;;;;5053292;28;20405;-38
2021/01/06 11:15:55;;;;;;;829.83;773.07;;;23.30;76.00;;;;;;5044957;28;20441;-37
2021/01/06 11:18:41;;;;;;;857.78;803.88;;;23.30;76.10;;;;;;5034247;28;20879;-37
2021/01/06 11:21:15;;;;;;;874.35;814.92;;;23.40;76.00;;;;;;5033304;28;20418;-38
2021/01/06 11:23:56;;;;;;;869.78;814.30;;;23.40;75.90;;;;;;5033569;28;20425;-38
2021/01/06 11:26:52;;;;;;;897.88;842.13;;;23.30;75.80;;;;;;5033786;28;20410;-38
2021/01/06 11:29:43;;;;;;;891.65;838.45;;;23.30;75.80;;;;;;5033695;28;20419;-39
2021/01/06 11:32:34;;;;;;;892.25;842.85;;;23.20;75.90;;;;;;5033801;28;20471;-45
2021/01/06 11:35:15;;;;;;;904.77;855.10;;;23.30;75.80;;;;;;5033370;28;20418;-38
2021/01/06 11:37:43;;;;;;;911.78;863.08;;;23.50;75.70;;;;;;5033584;28;20817;-37
2021/01/06 11:40:31;;;;;;;871.33;819.08;;;23.40;75.40;;;;;;5034012;28;20403;-39
2021/01/06 11:43:20;;;;;;;870.25;814.38;;;23.30;75.60;;;;;;5030661;28;20849;-38
2021/01/06 11:45:51;;;;;;;893.78;837.50;;;23.30;75.70;;;;;;5032174;28;20407;-38
2021/01/06 11:48:31;;;;;;;843.88;783.53;;;23.30;75.70;;;;;;5033030;28;20417;-39
2021/01/06 11:51:20;;;;;;;830.00;767.03;;;23.20;75.70;;;;;;5032031;28;20414;-38
2021/01/06 11:54:02;;;;;;;879.80;825.70;;;23.10;76.00;;;;;;5034027;28;20870;-39
2021/01/06 11:56:35;;;;;;;858.58;800.00;;;23.10;75.90;;;;;;5032508;28;20414;-38
2021/01/06 11:59:19;;;;;;;834.33;776.60;;;23.10;76.00;;;;;;5031842;28;20423;-38
2021/01/06 12:02:01;;;;;;;846.60;788.60;;;23.10;76.00;;;;;;5043616;28;20421;-38
2021/01/06 12:05:02;;;;;;;863.13;803.28;;;23.10;76.80;;;;;;5052062;28;20441;-38
2021/01/06 12:07:36;;;;;;;864.92;804.92;;;23.00;76.10;;;;;;5051221;28;20500;-39
2021/01/06 12:10:10;;;;;;;837.55;775.58;;;23.00;76.10;;;;;;5047181;28;20413;-39
2021/01/06 12:15:53;;;;;;;841.07;781.53;;;22.90;75.90;;;;;;5051279;28;20608;-39
2021/01/06 12:18:55;;;;;;;843.83;786.03;;;22.90;75.90;;;;;;5053138;28;20441;-38
2021/01/06 12:21:50;;;;;;;795.45;739.88;;;23.00;75.90;;;;;;5035347;28;20398;-38
2021/01/06 12:25:00;;;;;;;858.28;802.50;;;23.00;75.90;;;;;;5053709;28;20409;-40
2021/01/06 12:28:01;;;;;;;847.63;795.58;;;23.00;75.70;;;;;;5053339;28;20409;-38
2021/01/06 12:30:43;;;;;;;859.00;805.35;;;23.10;75.60;;;;;;5052634;28;20507;-39
2021/01/06 12:33:34;;;;;;;869.60;820.70;;;23.20;75.30;;;;;;5052758;28;20406;-39
2021/01/06 12:36:25;;;;;;;715.00;658.20;;;23.20;74.90;;;;;;5052936;28;20421;-37
2021/01/06 12:38:54;;;;;;;720.00;659.30;;;23.20;75.20;;;;;;5053121;28;20453;-37
2021/01/06 12:41:24;;;;;;;704.50;644.70;;;23.20;74.90;;;;;;5053687;28;20413;-39
2021/01/06 12:44:11;;;;;;;737.33;677.15;;;23.20;74.60;;;;;;5050783;28;20433;-37
2021/01/06 12:46:45;;;;;;;750.97;689.88;;;23.10;74.70;;;;;;5046753;28;20445;-38
2021/01/06 12:49:53;;;;;;;740.67;679.78;;;23.20;74.70;;;;;;5048668;28;20409;-38
2021/01/06 12:52:38;;;;;;;756.67;695.88;;;23.20;74.60;;;;;;5056146;28;20418;-38
2021/01/06 12:55:17;;;;;;;747.58;687.15;;;23.20;74.70;;;;;;5052484;28;20486;-37
2021/01/06 12:57:50;;;;;;;727.90;668.20;;;23.30;74.60;;;;;;5052241;28;20425;-39
2021/01/06 13:00:38;;;;;;;779.13;717.28;;;23.20;74.30;;;;;;5052100;28;20421;-37
2021/01/06 13:03:29;;;;;;;766.65;704.97;;;23.20;74.40;;;;;;5050917;28;20420;-38
2021/01/06 13:06:05;;;;;;;775.60;713.95;;;23.30;74.50;;;;;;5051089;28;20434;-38
2021/01/06 13:08:38;;;;;;;804.20;741.30;;;23.30;74.30;;;;;;5053379;28;20484;-38
2021/01/06 13:11:11;;;;;;;795.30;732.50;;;23.20;74.20;;;;;;5052110;28;20409;-39
2021/01/06 13:13:40;;;;;;;774.10;712.28;;;23.30;74.20;;;;;;5052215;28;20409;-39
2021/01/06 13:16:37;;;;;;;745.75;685.00;;;23.30;74.10;;;;;;5051002;28;20409;-37
2021/01/06 13:24:09;;;;;;;;;;;21.70;60.50;;;;;;5166987;27;19915;-68
2021/01/06 13:26:41;;;;;;;;;;;14.30;63.90;;;;;;5145972;27;20420;-66
2021/01/06 13:29:22;;;;;;;;;;;10.60;74.10;;;;;;5150386;27;19950;-67
2021/01/06 13:32:06;;;;;;;11.80;7.57;;;7.70;88.00;;;;;;5120146;28;20074;-67
2021/01/06 13:34:38;;;;;;;49.77;34.77;;;5.30;99.90;;;;;;5122597;28;21610;-66
2021/01/06 13:37:27;;;;;;;12.03;9.77;;;4.10;99.90;;;;;;5104398;28;20463;-68